sensor_id;sensor_type;location;lat;lon;timestamp;P1;durP1;ratioP1;P2;durP2;ratioP2
4885;SDS011;2457;51.788;6.136;2023-04-16T00:00:54;11.50;;;4.00;;
4885;SDS011;2457;51.788;6.136;2023-04-16T00:03:22;14.33;;;4.23;;
4885;SDS011;2457;51.788;6.136;2023-04-16T00:05:49;10.00;;;3.50;;
4885;SDS011;2457;51.788;6.136;2023-04-16T00:08:16;9.13;;;3.00;;
4885;SDS011;2457;51.788;6.136;2023-04-16T00:10:43;12.97;;;3.80;;
4885;SDS011;2457;51.788;6.136;2023-04-16T00:13:11;9.20;;;3.80;;
4885;SDS011;2457;51.788;6.136;2023-04-16T00:15:38;12.73;;;3.63;;
4885;SDS011;2457;51.788;6.136;2023-04-16T00:18:05;10.23;;;3.40;;
4885;SDS011;2457;51.788;6.136;2023-04-16T00:20:33;9.50;;;4.50;;
4885;SDS011;2457;51.788;6.136;2023-04-16T00:23:00;10.90;;;4.17;;
4885;SDS011;2457;51.788;6.136;2023-04-16T00:25:27;15.10;;;4.87;;
4885;SDS011;2457;51.788;6.136;2023-04-16T00:27:54;14.93;;;3.87;;
4885;SDS011;2457;51.788;6.136;2023-04-16T00:30:22;16.90;;;4.10;;
4885;SDS011;2457;51.788;6.136;2023-04-16T00:32:49;12.10;;;4.93;;
4885;SDS011;2457;51.788;6.136;2023-04-16T00:35:16;13.37;;;4.33;;
4885;SDS011;2457;51.788;6.136;2023-04-16T00:37:43;10.23;;;4.03;;
4885;SDS011;2457;51.788;6.136;2023-04-16T00:40:11;12.10;;;4.90;;
4885;SDS011;2457;51.788;6.136;2023-04-16T00:42:38;12.00;;;4.17;;
4885;SDS011;2457;51.788;6.136;2023-04-16T00:45:05;11.33;;;4.50;;
4885;SDS011;2457;51.788;6.136;2023-04-16T00:47:33;17.07;;;4.60;;
4885;SDS011;2457;51.788;6.136;2023-04-16T00:50:01;12.27;;;4.70;;
4885;SDS011;2457;51.788;6.136;2023-04-16T00:52:30;11.17;;;4.50;;
4885;SDS011;2457;51.788;6.136;2023-04-16T00:54:58;16.20;;;5.33;;
4885;SDS011;2457;51.788;6.136;2023-04-16T00:57:26;11.90;;;4.27;;
4885;SDS011;2457;51.788;6.136;2023-04-16T00:59:53;12.87;;;5.20;;
4885;SDS011;2457;51.788;6.136;2023-04-16T01:02:20;14.30;;;5.10;;
4885;SDS011;2457;51.788;6.136;2023-04-16T01:04:48;11.23;;;4.33;;
4885;SDS011;2457;51.788;6.136;2023-04-16T01:07:15;14.47;;;5.00;;
4885;SDS011;2457;51.788;6.136;2023-04-16T01:09:43;15.50;;;5.57;;
4885;SDS011;2457;51.788;6.136;2023-04-16T01:12:10;17.33;;;5.10;;
4885;SDS011;2457;51.788;6.136;2023-04-16T01:14:37;12.77;;;4.80;;
4885;SDS011;2457;51.788;6.136;2023-04-16T01:17:04;18.47;;;4.70;;
4885;SDS011;2457;51.788;6.136;2023-04-16T01:19:32;13.10;;;5.30;;
4885;SDS011;2457;51.788;6.136;2023-04-16T01:22:01;10.50;;;4.37;;
4885;SDS011;2457;51.788;6.136;2023-04-16T01:24:28;15.40;;;5.40;;
4885;SDS011;2457;51.788;6.136;2023-04-16T01:26:58;13.43;;;5.53;;
4885;SDS011;2457;51.788;6.136;2023-04-16T01:29:26;16.23;;;5.33;;
4885;SDS011;2457;51.788;6.136;2023-04-16T01:31:53;17.83;;;5.47;;
4885;SDS011;2457;51.788;6.136;2023-04-16T01:34:20;13.50;;;5.60;;
4885;SDS011;2457;51.788;6.136;2023-04-16T01:36:48;11.53;;;5.97;;
4885;SDS011;2457;51.788;6.136;2023-04-16T01:39:17;11.60;;;5.30;;
4885;SDS011;2457;51.788;6.136;2023-04-16T01:41:44;11.97;;;5.43;;
4885;SDS011;2457;51.788;6.136;2023-04-16T01:44:11;16.73;;;5.80;;
4885;SDS011;2457;51.788;6.136;2023-04-16T01:46:39;11.53;;;5.03;;
4885;SDS011;2457;51.788;6.136;2023-04-16T01:49:06;12.80;;;5.20;;
4885;SDS011;2457;51.788;6.136;2023-04-16T01:51:33;11.33;;;5.10;;
4885;SDS011;2457;51.788;6.136;2023-04-16T01:54:01;13.40;;;5.30;;
4885;SDS011;2457;51.788;6.136;2023-04-16T01:56:28;9.97;;;5.13;;
4885;SDS011;2457;51.788;6.136;2023-04-16T01:58:56;12.23;;;6.10;;
4885;SDS011;2457;51.788;6.136;2023-04-16T02:01:23;16.73;;;5.70;;
4885;SDS011;2457;51.788;6.136;2023-04-16T02:03:50;12.27;;;5.07;;
4885;SDS011;2457;51.788;6.136;2023-04-16T02:06:18;11.27;;;5.00;;
4885;SDS011;2457;51.788;6.136;2023-04-16T02:08:45;11.07;;;5.40;;
4885;SDS011;2457;51.788;6.136;2023-04-16T02:11:12;13.67;;;5.30;;
4885;SDS011;2457;51.788;6.136;2023-04-16T02:13:40;13.13;;;5.00;;
4885;SDS011;2457;51.788;6.136;2023-04-16T02:16:07;11.30;;;4.90;;
4885;SDS011;2457;51.788;6.136;2023-04-16T02:18:34;10.73;;;4.80;;
4885;SDS011;2457;51.788;6.136;2023-04-16T02:21:01;11.87;;;5.50;;
4885;SDS011;2457;51.788;6.136;2023-04-16T02:23:30;15.00;;;5.70;;
4885;SDS011;2457;51.788;6.136;2023-04-16T02:25:58;12.20;;;5.33;;
4885;SDS011;2457;51.788;6.136;2023-04-16T02:28:26;15.70;;;6.10;;
4885;SDS011;2457;51.788;6.136;2023-04-16T02:30:53;16.20;;;5.40;;
4885;SDS011;2457;51.788;6.136;2023-04-16T02:33:20;13.60;;;6.50;;
4885;SDS011;2457;51.788;6.136;2023-04-16T02:35:49;17.13;;;6.10;;
4885;SDS011;2457;51.788;6.136;2023-04-16T02:38:16;18.57;;;6.20;;
4885;SDS011;2457;51.788;6.136;2023-04-16T02:40:44;15.73;;;5.70;;
4885;SDS011;2457;51.788;6.136;2023-04-16T02:43:11;15.23;;;6.50;;
4885;SDS011;2457;51.788;6.136;2023-04-16T02:45:38;14.90;;;6.60;;
4885;SDS011;2457;51.788;6.136;2023-04-16T02:48:05;11.60;;;5.80;;
4885;SDS011;2457;51.788;6.136;2023-04-16T02:50:34;17.67;;;6.27;;
4885;SDS011;2457;51.788;6.136;2023-04-16T02:53:02;17.70;;;7.30;;
4885;SDS011;2457;51.788;6.136;2023-04-16T02:55:29;17.13;;;7.00;;
4885;SDS011;2457;51.788;6.136;2023-04-16T02:57:56;15.07;;;6.07;;
4885;SDS011;2457;51.788;6.136;2023-04-16T03:00:24;17.50;;;7.10;;
4885;SDS011;2457;51.788;6.136;2023-04-16T03:02:51;12.40;;;6.40;;
4885;SDS011;2457;51.788;6.136;2023-04-16T03:05:18;15.43;;;6.13;;
4885;SDS011;2457;51.788;6.136;2023-04-16T03:07:45;12.77;;;5.93;;
4885;SDS011;2457;51.788;6.136;2023-04-16T03:10:13;16.80;;;7.03;;
4885;SDS011;2457;51.788;6.136;2023-04-16T03:12:40;17.10;;;6.73;;
4885;SDS011;2457;51.788;6.136;2023-04-16T03:15:07;12.00;;;5.87;;
4885;SDS011;2457;51.788;6.136;2023-04-16T03:17:35;17.73;;;6.43;;
4885;SDS011;2457;51.788;6.136;2023-04-16T03:20:02;13.93;;;6.80;;
4885;SDS011;2457;51.788;6.136;2023-04-16T03:22:30;16.37;;;6.60;;
4885;SDS011;2457;51.788;6.136;2023-04-16T03:24:57;16.93;;;7.43;;
4885;SDS011;2457;51.788;6.136;2023-04-16T03:27:24;12.03;;;6.00;;
4885;SDS011;2457;51.788;6.136;2023-04-16T03:29:52;16.63;;;6.70;;
4885;SDS011;2457;51.788;6.136;2023-04-16T03:32:19;16.27;;;7.30;;
4885;SDS011;2457;51.788;6.136;2023-04-16T03:34:46;17.23;;;6.33;;
4885;SDS011;2457;51.788;6.136;2023-04-16T03:37:13;15.00;;;6.80;;
4885;SDS011;2457;51.788;6.136;2023-04-16T03:39:41;13.17;;;6.47;;
4885;SDS011;2457;51.788;6.136;2023-04-16T03:42:08;15.20;;;6.30;;
4885;SDS011;2457;51.788;6.136;2023-04-16T03:44:35;18.80;;;6.60;;
4885;SDS011;2457;51.788;6.136;2023-04-16T03:47:03;18.23;;;7.63;;
4885;SDS011;2457;51.788;6.136;2023-04-16T03:49:30;16.27;;;7.30;;
4885;SDS011;2457;51.788;6.136;2023-04-16T03:51:57;18.03;;;6.60;;
4885;SDS011;2457;51.788;6.136;2023-04-16T03:54:24;14.93;;;7.10;;
4885;SDS011;2457;51.788;6.136;2023-04-16T03:56:52;15.30;;;6.50;;
4885;SDS011;2457;51.788;6.136;2023-04-16T03:59:19;14.50;;;6.53;;
4885;SDS011;2457;51.788;6.136;2023-04-16T04:01:46;13.93;;;7.23;;
4885;SDS011;2457;51.788;6.136;2023-04-16T04:04:14;12.77;;;6.20;;
4885;SDS011;2457;51.788;6.136;2023-04-16T04:06:41;13.40;;;6.30;;
4885;SDS011;2457;51.788;6.136;2023-04-16T04:09:08;15.13;;;7.60;;
4885;SDS011;2457;51.788;6.136;2023-04-16T04:11:36;14.80;;;7.20;;
4885;SDS011;2457;51.788;6.136;2023-04-16T04:14:03;17.60;;;7.50;;
4885;SDS011;2457;51.788;6.136;2023-04-16T04:16:33;19.20;;;8.30;;
4885;SDS011;2457;51.788;6.136;2023-04-16T04:19:00;14.57;;;6.83;;
4885;SDS011;2457;51.788;6.136;2023-04-16T04:21:28;19.30;;;8.80;;
4885;SDS011;2457;51.788;6.136;2023-04-16T04:23:56;17.60;;;7.40;;
4885;SDS011;2457;51.788;6.136;2023-04-16T04:26:24;18.43;;;7.97;;
4885;SDS011;2457;51.788;6.136;2023-04-16T04:28:51;13.10;;;6.87;;
4885;SDS011;2457;51.788;6.136;2023-04-16T04:31:18;17.10;;;7.77;;
4885;SDS011;2457;51.788;6.136;2023-04-16T04:33:45;15.50;;;7.37;;
4885;SDS011;2457;51.788;6.136;2023-04-16T04:36:13;16.27;;;7.70;;
4885;SDS011;2457;51.788;6.136;2023-04-16T04:38:40;18.03;;;8.93;;
4885;SDS011;2457;51.788;6.136;2023-04-16T04:41:07;16.77;;;8.23;;
4885;SDS011;2457;51.788;6.136;2023-04-16T04:43:34;20.87;;;9.50;;
4885;SDS011;2457;51.788;6.136;2023-04-16T04:46:02;19.17;;;9.07;;
4885;SDS011;2457;51.788;6.136;2023-04-16T04:48:29;23.53;;;9.40;;
4885;SDS011;2457;51.788;6.136;2023-04-16T04:50:56;18.67;;;9.30;;
4885;SDS011;2457;51.788;6.136;2023-04-16T04:53:23;21.40;;;8.67;;
4885;SDS011;2457;51.788;6.136;2023-04-16T04:55:51;24.20;;;11.67;;
4885;SDS011;2457;51.788;6.136;2023-04-16T04:58:18;17.23;;;8.47;;
4885;SDS011;2457;51.788;6.136;2023-04-16T05:00:45;21.23;;;10.37;;
4885;SDS011;2457;51.788;6.136;2023-04-16T05:03:17;37.10;;;18.27;;
4885;SDS011;2457;51.788;6.136;2023-04-16T05:05:41;23.70;;;11.13;;
4885;SDS011;2457;51.788;6.136;2023-04-16T05:08:08;19.50;;;9.00;;
4885;SDS011;2457;51.788;6.136;2023-04-16T05:10:36;19.80;;;9.07;;
4885;SDS011;2457;51.788;6.136;2023-04-16T05:13:03;25.33;;;12.80;;
4885;SDS011;2457;51.788;6.136;2023-04-16T05:15:30;16.10;;;8.70;;
4885;SDS011;2457;51.788;6.136;2023-04-16T05:17:58;19.63;;;8.50;;
4885;SDS011;2457;51.788;6.136;2023-04-16T05:20:25;20.90;;;10.10;;
4885;SDS011;2457;51.788;6.136;2023-04-16T05:22:52;19.70;;;9.20;;
4885;SDS011;2457;51.788;6.136;2023-04-16T05:25:20;21.70;;;9.67;;
4885;SDS011;2457;51.788;6.136;2023-04-16T05:27:48;17.80;;;9.00;;
4885;SDS011;2457;51.788;6.136;2023-04-16T05:30:15;17.87;;;9.40;;
4885;SDS011;2457;51.788;6.136;2023-04-16T05:32:42;21.97;;;10.03;;
4885;SDS011;2457;51.788;6.136;2023-04-16T05:35:09;18.80;;;10.27;;
4885;SDS011;2457;51.788;6.136;2023-04-16T05:37:37;20.00;;;9.80;;
4885;SDS011;2457;51.788;6.136;2023-04-16T05:40:04;16.00;;;8.23;;
4885;SDS011;2457;51.788;6.136;2023-04-16T05:42:32;19.83;;;9.07;;
4885;SDS011;2457;51.788;6.136;2023-04-16T05:45:00;18.80;;;8.87;;
4885;SDS011;2457;51.788;6.136;2023-04-16T05:47:28;22.83;;;9.80;;
4885;SDS011;2457;51.788;6.136;2023-04-16T05:49:56;22.80;;;9.60;;
4885;SDS011;2457;51.788;6.136;2023-04-16T05:52:23;22.50;;;9.80;;
4885;SDS011;2457;51.788;6.136;2023-04-16T05:54:50;23.53;;;9.70;;
4885;SDS011;2457;51.788;6.136;2023-04-16T05:57:17;23.33;;;9.40;;
4885;SDS011;2457;51.788;6.136;2023-04-16T05:59:44;24.50;;;10.60;;
4885;SDS011;2457;51.788;6.136;2023-04-16T06:02:12;17.93;;;8.77;;
4885;SDS011;2457;51.788;6.136;2023-04-16T06:04:39;20.57;;;9.30;;
4885;SDS011;2457;51.788;6.136;2023-04-16T06:07:06;17.80;;;8.00;;
4885;SDS011;2457;51.788;6.136;2023-04-16T06:09:34;20.67;;;10.30;;
4885;SDS011;2457;51.788;6.136;2023-04-16T06:12:01;18.43;;;8.53;;
4885;SDS011;2457;51.788;6.136;2023-04-16T06:14:28;18.90;;;9.33;;
4885;SDS011;2457;51.788;6.136;2023-04-16T06:16:56;21.53;;;8.53;;
4885;SDS011;2457;51.788;6.136;2023-04-16T06:19:23;22.07;;;9.23;;
4885;SDS011;2457;51.788;6.136;2023-04-16T06:21:51;16.00;;;8.07;;
4885;SDS011;2457;51.788;6.136;2023-04-16T06:24:19;19.30;;;8.97;;
4885;SDS011;2457;51.788;6.136;2023-04-16T06:26:46;20.07;;;9.60;;
4885;SDS011;2457;51.788;6.136;2023-04-16T06:29:13;22.97;;;9.27;;
4885;SDS011;2457;51.788;6.136;2023-04-16T06:31:40;18.87;;;8.03;;
4885;SDS011;2457;51.788;6.136;2023-04-16T06:34:08;20.17;;;8.40;;
4885;SDS011;2457;51.788;6.136;2023-04-16T06:36:35;18.43;;;8.27;;
4885;SDS011;2457;51.788;6.136;2023-04-16T06:39:03;21.10;;;9.50;;
4885;SDS011;2457;51.788;6.136;2023-04-16T06:41:30;20.47;;;8.80;;
4885;SDS011;2457;51.788;6.136;2023-04-16T06:43:57;21.03;;;8.93;;
4885;SDS011;2457;51.788;6.136;2023-04-16T06:46:24;15.03;;;8.67;;
4885;SDS011;2457;51.788;6.136;2023-04-16T06:48:52;22.73;;;10.47;;
4885;SDS011;2457;51.788;6.136;2023-04-16T06:51:19;18.53;;;8.80;;
4885;SDS011;2457;51.788;6.136;2023-04-16T06:53:47;19.97;;;9.13;;
4885;SDS011;2457;51.788;6.136;2023-04-16T06:56:14;23.27;;;9.03;;
4885;SDS011;2457;51.788;6.136;2023-04-16T06:58:42;22.03;;;9.60;;
4885;SDS011;2457;51.788;6.136;2023-04-16T07:01:09;25.90;;;10.67;;
4885;SDS011;2457;51.788;6.136;2023-04-16T07:03:36;24.60;;;10.90;;
4885;SDS011;2457;51.788;6.136;2023-04-16T07:06:03;18.30;;;8.90;;
4885;SDS011;2457;51.788;6.136;2023-04-16T07:08:31;21.33;;;9.77;;
4885;SDS011;2457;51.788;6.136;2023-04-16T07:10:58;23.47;;;10.00;;
4885;SDS011;2457;51.788;6.136;2023-04-16T07:13:25;20.07;;;9.57;;
4885;SDS011;2457;51.788;6.136;2023-04-16T07:15:53;18.27;;;8.40;;
4885;SDS011;2457;51.788;6.136;2023-04-16T07:18:20;24.90;;;10.00;;
4885;SDS011;2457;51.788;6.136;2023-04-16T07:20:47;21.30;;;9.63;;
4885;SDS011;2457;51.788;6.136;2023-04-16T07:23:14;21.63;;;10.53;;
4885;SDS011;2457;51.788;6.136;2023-04-16T07:25:42;19.20;;;9.63;;
4885;SDS011;2457;51.788;6.136;2023-04-16T07:28:09;17.50;;;9.40;;
4885;SDS011;2457;51.788;6.136;2023-04-16T07:30:36;24.27;;;11.13;;
4885;SDS011;2457;51.788;6.136;2023-04-16T07:33:03;25.73;;;10.27;;
4885;SDS011;2457;51.788;6.136;2023-04-16T07:35:31;18.17;;;9.20;;
4885;SDS011;2457;51.788;6.136;2023-04-16T07:37:58;21.60;;;10.20;;
4885;SDS011;2457;51.788;6.136;2023-04-16T07:40:25;21.90;;;10.23;;
4885;SDS011;2457;51.788;6.136;2023-04-16T07:42:53;22.43;;;10.37;;
4885;SDS011;2457;51.788;6.136;2023-04-16T07:45:22;22.00;;;9.67;;
4885;SDS011;2457;51.788;6.136;2023-04-16T07:47:49;21.53;;;10.37;;
4885;SDS011;2457;51.788;6.136;2023-04-16T07:50:16;21.50;;;10.90;;
4885;SDS011;2457;51.788;6.136;2023-04-16T07:52:45;21.37;;;10.10;;
4885;SDS011;2457;51.788;6.136;2023-04-16T07:55:12;23.13;;;9.90;;
4885;SDS011;2457;51.788;6.136;2023-04-16T07:57:40;21.77;;;9.37;;
4885;SDS011;2457;51.788;6.136;2023-04-16T08:00:07;25.23;;;10.90;;
4885;SDS011;2457;51.788;6.136;2023-04-16T08:02:35;22.07;;;10.90;;
4885;SDS011;2457;51.788;6.136;2023-04-16T08:05:02;25.13;;;10.73;;
4885;SDS011;2457;51.788;6.136;2023-04-16T08:07:29;21.20;;;9.60;;
4885;SDS011;2457;51.788;6.136;2023-04-16T08:09:57;17.97;;;8.40;;
4885;SDS011;2457;51.788;6.136;2023-04-16T08:12:24;18.27;;;10.07;;
4885;SDS011;2457;51.788;6.136;2023-04-16T08:14:51;23.20;;;10.43;;
4885;SDS011;2457;51.788;6.136;2023-04-16T08:17:18;24.33;;;11.63;;
4885;SDS011;2457;51.788;6.136;2023-04-16T08:19:46;20.80;;;10.73;;
4885;SDS011;2457;51.788;6.136;2023-04-16T08:22:13;19.03;;;9.80;;
4885;SDS011;2457;51.788;6.136;2023-04-16T08:24:40;21.43;;;9.77;;
4885;SDS011;2457;51.788;6.136;2023-04-16T08:27:08;22.13;;;11.70;;
4885;SDS011;2457;51.788;6.136;2023-04-16T08:29:37;21.83;;;11.30;;
4885;SDS011;2457;51.788;6.136;2023-04-16T08:32:04;19.30;;;9.70;;
4885;SDS011;2457;51.788;6.136;2023-04-16T08:34:32;20.70;;;10.37;;
4885;SDS011;2457;51.788;6.136;2023-04-16T08:36:59;21.93;;;11.47;;
4885;SDS011;2457;51.788;6.136;2023-04-16T08:39:27;32.87;;;11.80;;
4885;SDS011;2457;51.788;6.136;2023-04-16T08:41:54;26.53;;;10.83;;
4885;SDS011;2457;51.788;6.136;2023-04-16T08:44:26;21.00;;;11.40;;
4885;SDS011;2457;51.788;6.136;2023-04-16T08:46:54;21.10;;;10.00;;
4885;SDS011;2457;51.788;6.136;2023-04-16T08:49:24;18.07;;;10.27;;
4885;SDS011;2457;51.788;6.136;2023-04-16T08:51:53;29.00;;;10.63;;
4885;SDS011;2457;51.788;6.136;2023-04-16T08:57:06;24.07;;;10.80;;
4885;SDS011;2457;51.788;6.136;2023-04-16T08:59:35;25.37;;;11.83;;
4885;SDS011;2457;51.788;6.136;2023-04-16T09:02:03;23.03;;;10.97;;
4885;SDS011;2457;51.788;6.136;2023-04-16T09:04:32;22.00;;;11.40;;
4885;SDS011;2457;51.788;6.136;2023-04-16T09:07:00;23.57;;;12.57;;
4885;SDS011;2457;51.788;6.136;2023-04-16T09:09:28;25.67;;;11.47;;
4885;SDS011;2457;51.788;6.136;2023-04-16T09:11:56;25.67;;;11.77;;
4885;SDS011;2457;51.788;6.136;2023-04-16T09:14:23;25.27;;;12.10;;
4885;SDS011;2457;51.788;6.136;2023-04-16T09:16:52;22.50;;;10.70;;
4885;SDS011;2457;51.788;6.136;2023-04-16T09:19:20;28.67;;;11.70;;
4885;SDS011;2457;51.788;6.136;2023-04-16T09:21:48;20.43;;;10.80;;
4885;SDS011;2457;51.788;6.136;2023-04-16T09:24:16;21.47;;;11.73;;
4885;SDS011;2457;51.788;6.136;2023-04-16T09:26:44;22.43;;;12.90;;
4885;SDS011;2457;51.788;6.136;2023-04-16T09:29:14;29.20;;;12.50;;
4885;SDS011;2457;51.788;6.136;2023-04-16T09:31:41;21.93;;;11.57;;
4885;SDS011;2457;51.788;6.136;2023-04-16T09:34:09;22.97;;;11.87;;
4885;SDS011;2457;51.788;6.136;2023-04-16T09:36:37;25.23;;;11.73;;
4885;SDS011;2457;51.788;6.136;2023-04-16T09:39:04;23.83;;;11.80;;
4885;SDS011;2457;51.788;6.136;2023-04-16T09:41:32;27.00;;;11.33;;
4885;SDS011;2457;51.788;6.136;2023-04-16T09:44:02;22.57;;;11.80;;
4885;SDS011;2457;51.788;6.136;2023-04-16T09:46:36;24.43;;;11.13;;
4885;SDS011;2457;51.788;6.136;2023-04-16T09:49:13;26.20;;;11.30;;
4885;SDS011;2457;51.788;6.136;2023-04-16T09:51:41;23.57;;;11.57;;
4885;SDS011;2457;51.788;6.136;2023-04-16T09:54:09;24.50;;;10.50;;
4885;SDS011;2457;51.788;6.136;2023-04-16T09:56:41;24.77;;;11.87;;
4885;SDS011;2457;51.788;6.136;2023-04-16T09:59:18;27.10;;;10.90;;
4885;SDS011;2457;51.788;6.136;2023-04-16T10:01:37;24.60;;;12.50;;
4885;SDS011;2457;51.788;6.136;2023-04-16T10:04:04;25.63;;;11.07;;
4885;SDS011;2457;51.788;6.136;2023-04-16T10:06:33;24.07;;;11.37;;
4885;SDS011;2457;51.788;6.136;2023-04-16T10:09:00;24.20;;;13.37;;
4885;SDS011;2457;51.788;6.136;2023-04-16T10:11:27;23.33;;;12.40;;
4885;SDS011;2457;51.788;6.136;2023-04-16T10:13:55;26.93;;;12.13;;
4885;SDS011;2457;51.788;6.136;2023-04-16T10:16:22;26.53;;;12.63;;
4885;SDS011;2457;51.788;6.136;2023-04-16T10:18:50;26.33;;;12.27;;
4885;SDS011;2457;51.788;6.136;2023-04-16T10:21:17;24.80;;;11.90;;
4885;SDS011;2457;51.788;6.136;2023-04-16T10:23:45;27.70;;;13.43;;
4885;SDS011;2457;51.788;6.136;2023-04-16T10:26:14;31.27;;;11.40;;
4885;SDS011;2457;51.788;6.136;2023-04-16T10:28:43;25.67;;;10.77;;
4885;SDS011;2457;51.788;6.136;2023-04-16T10:31:11;29.90;;;11.40;;
4885;SDS011;2457;51.788;6.136;2023-04-16T10:33:39;26.37;;;12.70;;
4885;SDS011;2457;51.788;6.136;2023-04-16T10:36:10;23.47;;;11.73;;
4885;SDS011;2457;51.788;6.136;2023-04-16T10:38:38;25.60;;;11.53;;
4885;SDS011;2457;51.788;6.136;2023-04-16T10:41:06;22.00;;;10.90;;
4885;SDS011;2457;51.788;6.136;2023-04-16T10:43:38;21.70;;;11.00;;
4885;SDS011;2457;51.788;6.136;2023-04-16T10:46:25;24.30;;;12.00;;
4885;SDS011;2457;51.788;6.136;2023-04-16T10:48:53;26.97;;;11.70;;
4885;SDS011;2457;51.788;6.136;2023-04-16T10:51:25;26.83;;;12.13;;
4885;SDS011;2457;51.788;6.136;2023-04-16T10:53:54;22.60;;;11.53;;
4885;SDS011;2457;51.788;6.136;2023-04-16T10:56:22;22.57;;;11.90;;
4885;SDS011;2457;51.788;6.136;2023-04-16T10:58:49;28.63;;;12.23;;
4885;SDS011;2457;51.788;6.136;2023-04-16T11:01:22;20.70;;;10.40;;
4885;SDS011;2457;51.788;6.136;2023-04-16T11:03:47;20.10;;;10.20;;
4885;SDS011;2457;51.788;6.136;2023-04-16T11:06:16;24.47;;;10.27;;
4885;SDS011;2457;51.788;6.136;2023-04-16T11:08:44;23.50;;;11.87;;
4885;SDS011;2457;51.788;6.136;2023-04-16T11:11:11;25.47;;;11.10;;
4885;SDS011;2457;51.788;6.136;2023-04-16T11:13:41;23.70;;;11.13;;
4885;SDS011;2457;51.788;6.136;2023-04-16T11:16:07;21.77;;;11.33;;
4885;SDS011;2457;51.788;6.136;2023-04-16T11:18:37;24.60;;;10.47;;
4885;SDS011;2457;51.788;6.136;2023-04-16T11:21:09;22.90;;;10.83;;
4885;SDS011;2457;51.788;6.136;2023-04-16T11:23:47;28.20;;;13.53;;
4885;SDS011;2457;51.788;6.136;2023-04-16T11:26:24;36.53;;;16.10;;
4885;SDS011;2457;51.788;6.136;2023-04-16T11:28:52;27.23;;;14.50;;
4885;SDS011;2457;51.788;6.136;2023-04-16T11:31:20;20.40;;;10.77;;
4885;SDS011;2457;51.788;6.136;2023-04-16T11:33:48;26.30;;;13.00;;
4885;SDS011;2457;51.788;6.136;2023-04-16T11:36:16;19.77;;;9.73;;
4885;SDS011;2457;51.788;6.136;2023-04-16T11:38:44;19.43;;;10.37;;
4885;SDS011;2457;51.788;6.136;2023-04-16T11:41:17;24.00;;;9.80;;
4885;SDS011;2457;51.788;6.136;2023-04-16T11:43:40;20.17;;;9.23;;
4885;SDS011;2457;51.788;6.136;2023-04-16T11:46:07;20.00;;;10.93;;
4885;SDS011;2457;51.788;6.136;2023-04-16T11:48:47;22.43;;;12.57;;
4885;SDS011;2457;51.788;6.136;2023-04-16T11:51:15;28.83;;;13.23;;
4885;SDS011;2457;51.788;6.136;2023-04-16T11:53:46;42.07;;;18.87;;
4885;SDS011;2457;51.788;6.136;2023-04-16T11:56:13;23.20;;;11.30;;
4885;SDS011;2457;51.788;6.136;2023-04-16T11:58:41;23.23;;;11.80;;
4885;SDS011;2457;51.788;6.136;2023-04-16T12:01:08;33.23;;;15.80;;
4885;SDS011;2457;51.788;6.136;2023-04-16T12:03:37;22.20;;;11.83;;
4885;SDS011;2457;51.788;6.136;2023-04-16T12:06:07;32.33;;;16.03;;
4885;SDS011;2457;51.788;6.136;2023-04-16T12:08:35;19.17;;;10.10;;
4885;SDS011;2457;51.788;6.136;2023-04-16T12:11:02;27.27;;;12.00;;
4885;SDS011;2457;51.788;6.136;2023-04-16T12:13:29;21.83;;;11.13;;
4885;SDS011;2457;51.788;6.136;2023-04-16T12:15:58;24.23;;;12.40;;
4885;SDS011;2457;51.788;6.136;2023-04-16T12:18:27;16.13;;;8.53;;
4885;SDS011;2457;51.788;6.136;2023-04-16T12:20:54;69.17;;;35.03;;
4885;SDS011;2457;51.788;6.136;2023-04-16T12:23:25;21.47;;;10.87;;
4885;SDS011;2457;51.788;6.136;2023-04-16T12:25:53;23.93;;;12.13;;
4885;SDS011;2457;51.788;6.136;2023-04-16T12:28:27;33.43;;;18.03;;
4885;SDS011;2457;51.788;6.136;2023-04-16T12:30:55;20.53;;;11.23;;
4885;SDS011;2457;51.788;6.136;2023-04-16T12:33:22;25.33;;;12.87;;
4885;SDS011;2457;51.788;6.136;2023-04-16T12:35:50;23.20;;;10.73;;
4885;SDS011;2457;51.788;6.136;2023-04-16T12:38:17;31.30;;;17.50;;
4885;SDS011;2457;51.788;6.136;2023-04-16T12:40:45;54.10;;;25.50;;
4885;SDS011;2457;51.788;6.136;2023-04-16T12:43:12;44.70;;;24.60;;
4885;SDS011;2457;51.788;6.136;2023-04-16T12:45:40;31.00;;;14.07;;
4885;SDS011;2457;51.788;6.136;2023-04-16T12:48:07;23.07;;;10.67;;
4885;SDS011;2457;51.788;6.136;2023-04-16T12:50:34;25.37;;;10.20;;
4885;SDS011;2457;51.788;6.136;2023-04-16T12:53:02;22.80;;;10.93;;
4885;SDS011;2457;51.788;6.136;2023-04-16T12:55:29;31.90;;;16.80;;
4885;SDS011;2457;51.788;6.136;2023-04-16T12:57:56;32.23;;;11.70;;
4885;SDS011;2457;51.788;6.136;2023-04-16T13:00:24;24.57;;;10.73;;
4885;SDS011;2457;51.788;6.136;2023-04-16T13:02:51;21.10;;;9.90;;
4885;SDS011;2457;51.788;6.136;2023-04-16T13:05:18;24.23;;;10.50;;
4885;SDS011;2457;51.788;6.136;2023-04-16T13:07:46;23.00;;;10.53;;
4885;SDS011;2457;51.788;6.136;2023-04-16T13:10:13;24.03;;;10.03;;
4885;SDS011;2457;51.788;6.136;2023-04-16T13:12:41;26.10;;;10.83;;
4885;SDS011;2457;51.788;6.136;2023-04-16T13:15:09;21.10;;;9.97;;
4885;SDS011;2457;51.788;6.136;2023-04-16T13:17:36;18.40;;;9.50;;
4885;SDS011;2457;51.788;6.136;2023-04-16T13:20:04;21.37;;;8.20;;
4885;SDS011;2457;51.788;6.136;2023-04-16T13:22:31;25.90;;;12.30;;
4885;SDS011;2457;51.788;6.136;2023-04-16T13:24:59;21.63;;;10.17;;
4885;SDS011;2457;51.788;6.136;2023-04-16T13:27:26;17.50;;;8.60;;
4885;SDS011;2457;51.788;6.136;2023-04-16T13:29:53;22.00;;;10.00;;
4885;SDS011;2457;51.788;6.136;2023-04-16T13:32:21;19.33;;;9.40;;
4885;SDS011;2457;51.788;6.136;2023-04-16T13:34:48;21.17;;;8.27;;
4885;SDS011;2457;51.788;6.136;2023-04-16T13:37:15;23.30;;;9.47;;
4885;SDS011;2457;51.788;6.136;2023-04-16T13:39:43;16.03;;;8.40;;
4885;SDS011;2457;51.788;6.136;2023-04-16T13:42:10;19.93;;;8.90;;
4885;SDS011;2457;51.788;6.136;2023-04-16T13:44:38;18.07;;;10.10;;
4885;SDS011;2457;51.788;6.136;2023-04-16T13:47:05;18.97;;;9.60;;
4885;SDS011;2457;51.788;6.136;2023-04-16T13:49:33;19.63;;;9.10;;
4885;SDS011;2457;51.788;6.136;2023-04-16T13:52:01;23.10;;;9.53;;
4885;SDS011;2457;51.788;6.136;2023-04-16T13:54:28;25.97;;;10.87;;
4885;SDS011;2457;51.788;6.136;2023-04-16T13:56:55;20.97;;;8.97;;
4885;SDS011;2457;51.788;6.136;2023-04-16T13:59:23;27.83;;;9.13;;
4885;SDS011;2457;51.788;6.136;2023-04-16T14:01:50;20.87;;;9.50;;
4885;SDS011;2457;51.788;6.136;2023-04-16T14:04:17;22.13;;;8.60;;
4885;SDS011;2457;51.788;6.136;2023-04-16T14:06:44;18.07;;;9.40;;
4885;SDS011;2457;51.788;6.136;2023-04-16T14:09:12;19.90;;;8.83;;
4885;SDS011;2457;51.788;6.136;2023-04-16T14:11:39;20.80;;;8.50;;
4885;SDS011;2457;51.788;6.136;2023-04-16T14:14:06;29.23;;;12.40;;
4885;SDS011;2457;51.788;6.136;2023-04-16T14:16:33;21.23;;;10.20;;
4885;SDS011;2457;51.788;6.136;2023-04-16T14:19:01;21.17;;;9.70;;
4885;SDS011;2457;51.788;6.136;2023-04-16T14:21:28;22.03;;;9.80;;
4885;SDS011;2457;51.788;6.136;2023-04-16T14:23:56;19.90;;;9.40;;
4885;SDS011;2457;51.788;6.136;2023-04-16T14:26:23;27.43;;;9.70;;
4885;SDS011;2457;51.788;6.136;2023-04-16T14:28:51;17.13;;;8.10;;
4885;SDS011;2457;51.788;6.136;2023-04-16T14:31:18;19.83;;;9.20;;
4885;SDS011;2457;51.788;6.136;2023-04-16T14:33:45;19.97;;;9.13;;
4885;SDS011;2457;51.788;6.136;2023-04-16T14:36:13;21.67;;;9.00;;
4885;SDS011;2457;51.788;6.136;2023-04-16T14:38:40;19.43;;;7.57;;
4885;SDS011;2457;51.788;6.136;2023-04-16T14:41:08;19.83;;;8.33;;
4885;SDS011;2457;51.788;6.136;2023-04-16T14:43:37;19.90;;;9.13;;
4885;SDS011;2457;51.788;6.136;2023-04-16T14:46:06;19.87;;;9.47;;
4885;SDS011;2457;51.788;6.136;2023-04-16T14:48:33;26.00;;;9.53;;
4885;SDS011;2457;51.788;6.136;2023-04-16T14:51:01;21.70;;;8.43;;
4885;SDS011;2457;51.788;6.136;2023-04-16T14:53:28;17.80;;;8.97;;
4885;SDS011;2457;51.788;6.136;2023-04-16T14:55:55;23.07;;;10.13;;
4885;SDS011;2457;51.788;6.136;2023-04-16T14:58:24;13.80;;;7.60;;
4885;SDS011;2457;51.788;6.136;2023-04-16T15:00:51;16.03;;;8.20;;